sensor_id;sensor_type;location;lat;lon;timestamp;pressure;altitude;pressure_sealevel;temperature;humidity
26937;BME280;14495;48.116;11.676;2023-06-26T00:01:58;95629.66;;;14.51;100.00
26937;BME280;14495;48.116;11.676;2023-06-26T00:04:24;95629.41;;;14.54;100.00
26937;BME280;14495;48.116;11.676;2023-06-26T00:06:52;95636.81;;;14.49;100.00
26937;BME280;14495;48.116;11.676;2023-06-26T00:09:18;95625.81;;;14.44;100.00
26937;BME280;14495;48.116;11.676;2023-06-26T00:11:44;95631.19;;;14.42;100.00
26937;BME280;14495;48.116;11.676;2023-06-26T00:14:09;95630.59;;;14.39;100.00
26937;BME280;14495;48.116;11.676;2023-06-26T00:16:35;95630.38;;;14.42;100.00
26937;BME280;14495;48.116;11.676;2023-06-26T00:19:01;95629.50;;;14.30;100.00
26937;BME280;14495;48.116;11.676;2023-06-26T00:21:26;95627.00;;;14.28;100.00
26937;BME280;14495;48.116;11.676;2023-06-26T00:23:53;95624.38;;;14.28;100.00
26937;BME280;14495;48.116;11.676;2023-06-26T00:26:19;95637.28;;;14.20;100.00
26937;BME280;14495;48.116;11.676;2023-06-26T00:28:44;95636.78;;;14.15;100.00
26937;BME280;14495;48.116;11.676;2023-06-26T00:31:09;95633.44;;;14.13;100.00
26937;BME280;14495;48.116;11.676;2023-06-26T00:33:35;95634.16;;;14.15;100.00
26937;BME280;14495;48.116;11.676;2023-06-26T00:36:00;95642.41;;;14.10;100.00
26937;BME280;14495;48.116;11.676;2023-06-26T00:38:30;95640.97;;;14.18;100.00
26937;BME280;14495;48.116;11.676;2023-06-26T00:40:56;95639.41;;;14.15;100.00
26937;BME280;14495;48.116;11.676;2023-06-26T00:43:23;95640.13;;;14.17;100.00
26937;BME280;14495;48.116;11.676;2023-06-26T00:45:50;95638.22;;;14.19;100.00
26937;BME280;14495;48.116;11.676;2023-06-26T00:48:16;95643.63;;;14.18;100.00
26937;BME280;14495;48.116;11.676;2023-06-26T00:50:42;95635.94;;;14.15;100.00
26937;BME280;14495;48.116;11.676;2023-06-26T00:53:11;95637.25;;;14.09;100.00
26937;BME280;14495;48.116;11.676;2023-06-26T00:55:36;95632.94;;;14.08;100.00
26937;BME280;14495;48.116;11.676;2023-06-26T00:58:02;95637.16;;;14.22;100.00
26937;BME280;14495;48.116;11.676;2023-06-26T01:00:27;95633.44;;;14.24;100.00
26937;BME280;14495;48.116;11.676;2023-06-26T01:02:53;95640.28;;;14.27;100.00
26937;BME280;14495;48.116;11.676;2023-06-26T01:05:21;95640.63;;;14.22;100.00
26937;BME280;14495;48.116;11.676;2023-06-26T01:07:48;95638.00;;;14.22;100.00
26937;BME280;14495;48.116;11.676;2023-06-26T01:10:13;95634.75;;;14.19;100.00
26937;BME280;14495;48.116;11.676;2023-06-26T01:12:39;95632.72;;;14.22;100.00
26937;BME280;14495;48.116;11.676;2023-06-26T01:15:05;95635.59;;;14.19;100.00
26937;BME280;14495;48.116;11.676;2023-06-26T01:17:31;95631.53;;;14.15;100.00
26937;BME280;14495;48.116;11.676;2023-06-26T01:19:58;95629.13;;;14.12;100.00
26937;BME280;14495;48.116;11.676;2023-06-26T01:22:51;95629.50;;;14.07;100.00
26937;BME280;14495;48.116;11.676;2023-06-26T01:28:04;95636.28;;;13.99;100.00
26937;BME280;14495;48.116;11.676;2023-06-26T01:30:32;95633.75;;;13.97;100.00
26937;BME280;14495;48.116;11.676;2023-06-26T01:32:59;95625.25;;;13.93;100.00
26937;BME280;14495;48.116;11.676;2023-06-26T01:35:25;95636.53;;;13.96;100.00
26937;BME280;14495;48.116;11.676;2023-06-26T01:37:51;95633.91;;;13.96;100.00
26937;BME280;14495;48.116;11.676;2023-06-26T01:40:16;95623.22;;;13.86;100.00
26937;BME280;14495;48.116;11.676;2023-06-26T01:42:42;95627.44;;;13.88;100.00
26937;BME280;14495;48.116;11.676;2023-06-26T01:45:15;95628.47;;;13.86;100.00
26937;BME280;14495;48.116;11.676;2023-06-26T01:47:48;95626.09;;;13.83;100.00
26937;BME280;14495;48.116;11.676;2023-06-26T01:50:18;95621.19;;;13.78;100.00
26937;BME280;14495;48.116;11.676;2023-06-26T01:55:28;95622.00;;;13.79;100.00
26937;BME280;14495;48.116;11.676;2023-06-26T01:57:59;95618.22;;;13.83;100.00
26937;BME280;14495;48.116;11.676;2023-06-26T02:00:24;95623.34;;;13.84;100.00
26937;BME280;14495;48.116;11.676;2023-06-26T02:02:51;95622.63;;;13.82;100.00
26937;BME280;14495;48.116;11.676;2023-06-26T02:05:17;95625.38;;;13.81;100.00
26937;BME280;14495;48.116;11.676;2023-06-26T02:07:43;95634.56;;;13.75;100.00
26937;BME280;14495;48.116;11.676;2023-06-26T02:10:09;95619.53;;;13.77;100.00
26937;BME280;14495;48.116;11.676;2023-06-26T02:12:35;95624.88;;;13.76;100.00
26937;BME280;14495;48.116;11.676;2023-06-26T02:15:02;95622.25;;;13.76;100.00
26937;BME280;14495;48.116;11.676;2023-06-26T02:17:27;95623.69;;;13.80;100.00
26937;BME280;14495;48.116;11.676;2023-06-26T02:19:52;95625.25;;;13.82;100.00
26937;BME280;14495;48.116;11.676;2023-06-26T02:22:18;95628.72;;;13.83;100.00
26937;BME280;14495;48.116;11.676;2023-06-26T02:24:43;95624.69;;;13.90;100.00
26937;BME280;14495;48.116;11.676;2023-06-26T02:27:10;95628.59;;;13.84;100.00
26937;BME280;14495;48.116;11.676;2023-06-26T02:29:36;95631.81;;;13.88;100.00
26937;BME280;14495;48.116;11.676;2023-06-26T02:32:01;95629.56;;;13.83;100.00
26937;BME280;14495;48.116;11.676;2023-06-26T02:34:27;95628.13;;;13.79;100.00
26937;BME280;14495;48.116;11.676;2023-06-26T02:36:53;95632.50;;;13.79;100.00
26937;BME280;14495;48.116;11.676;2023-06-26T02:39:21;95623.09;;;13.76;100.00
26937;BME280;14495;48.116;11.676;2023-06-26T02:41:46;95630.25;;;13.74;100.00
26937;BME280;14495;48.116;11.676;2023-06-26T02:44:12;95632.38;;;13.69;100.00
26937;BME280;14495;48.116;11.676;2023-06-26T02:46:38;95632.47;;;13.67;100.00
26937;BME280;14495;48.116;11.676;2023-06-26T02:49:04;95630.44;;;13.60;100.00
26937;BME280;14495;48.116;11.676;2023-06-26T02:51:31;95626.41;;;13.67;100.00
26937;BME280;14495;48.116;11.676;2023-06-26T02:53:59;95630.31;;;13.61;100.00
26937;BME280;14495;48.116;11.676;2023-06-26T02:56:25;95628.78;;;13.59;100.00
26937;BME280;14495;48.116;11.676;2023-06-26T02:58:54;95629.72;;;13.58;100.00
26937;BME280;14495;48.116;11.676;2023-06-26T03:01:20;95634.13;;;13.57;100.00
26937;BME280;14495;48.116;11.676;2023-06-26T03:03:46;95634.03;;;13.59;100.00
26937;BME280;14495;48.116;11.676;2023-06-26T03:06:12;95628.16;;;13.55;100.00
26937;BME280;14495;48.116;11.676;2023-06-26T03:08:38;95626.81;;;13.49;100.00
26937;BME280;14495;48.116;11.676;2023-06-26T03:11:05;95627.75;;;13.48;100.00
26937;BME280;14495;48.116;11.676;2023-06-26T03:13:30;95627.25;;;13.43;100.00
26937;BME280;14495;48.116;11.676;2023-06-26T03:15:56;95626.44;;;13.43;100.00
26937;BME280;14495;48.116;11.676;2023-06-26T03:18:21;95627.00;;;13.35;100.00
26937;BME280;14495;48.116;11.676;2023-06-26T03:20:46;95623.53;;;13.34;100.00
26937;BME280;14495;48.116;11.676;2023-06-26T03:23:14;95626.38;;;13.31;100.00
26937;BME280;14495;48.116;11.676;2023-06-26T03:25:39;95623.31;;;13.25;100.00
26937;BME280;14495;48.116;11.676;2023-06-26T03:28:04;95624.81;;;13.29;100.00
26937;BME280;14495;48.116;11.676;2023-06-26T03:30:30;95629.28;;;13.27;100.00
26937;BME280;14495;48.116;11.676;2023-06-26T03:32:57;95630.66;;;13.32;100.00
26937;BME280;14495;48.116;11.676;2023-06-26T03:35:23;95625.31;;;13.34;100.00
26937;BME280;14495;48.116;11.676;2023-06-26T03:37:49;95625.41;;;13.32;100.00
26937;BME280;14495;48.116;11.676;2023-06-26T03:40:14;95626.53;;;13.41;100.00
26937;BME280;14495;48.116;11.676;2023-06-26T03:42:39;95629.19;;;13.52;100.00
26937;BME280;14495;48.116;11.676;2023-06-26T03:45:05;95629.81;;;13.56;100.00
26937;BME280;14495;48.116;11.676;2023-06-26T03:47:31;95630.31;;;13.61;100.00
26937;BME280;14495;48.116;11.676;2023-06-26T03:49:56;95627.38;;;13.66;100.00
26937;BME280;14495;48.116;11.676;2023-06-26T03:52:21;95635.72;;;13.71;100.00
26937;BME280;14495;48.116;11.676;2023-06-26T03:54:47;95625.50;;;13.79;100.00
26937;BME280;14495;48.116;11.676;2023-06-26T03:57:13;95626.94;;;13.83;100.00
26937;BME280;14495;48.116;11.676;2023-06-26T03:59:38;95627.88;;;13.93;100.00
26937;BME280;14495;48.116;11.676;2023-06-26T04:02:04;95637.25;;;13.98;100.00
26937;BME280;14495;48.116;11.676;2023-06-26T04:04:29;95624.56;;;14.03;100.00
26937;BME280;14495;48.116;11.676;2023-06-26T04:06:55;95630.09;;;14.11;100.00
26937;BME280;14495;48.116;11.676;2023-06-26T04:09:22;95626.63;;;14.10;100.00
26937;BME280;14495;48.116;11.676;2023-06-26T04:11:48;95633.81;;;14.20;100.00
26937;BME280;14495;48.116;11.676;2023-06-26T04:14:13;95629.03;;;14.25;100.00
26937;BME280;14495;48.116;11.676;2023-06-26T04:16:38;95631.41;;;14.28;100.00
26937;BME280;14495;48.116;11.676;2023-06-26T04:19:04;95633.72;;;14.33;100.00
26937;BME280;14495;48.116;11.676;2023-06-26T04:21:30;95633.72;;;14.44;100.00
26937;BME280;14495;48.116;11.676;2023-06-26T04:23:56;95622.47;;;14.53;100.00
26937;BME280;14495;48.116;11.676;2023-06-26T04:26:21;95618.31;;;14.62;100.00
26937;BME280;14495;48.116;11.676;2023-06-26T04:28:46;95622.13;;;14.69;100.00
26937;BME280;14495;48.116;11.676;2023-06-26T04:31:12;95631.69;;;14.81;100.00
26937;BME280;14495;48.116;11.676;2023-06-26T04:33:37;95633.72;;;14.89;100.00
26937;BME280;14495;48.116;11.676;2023-06-26T04:36:06;95628.19;;;15.03;100.00
26937;BME280;14495;48.116;11.676;2023-06-26T04:38:34;95637.00;;;15.14;100.00
26937;BME280;14495;48.116;11.676;2023-06-26T04:41:01;95634.09;;;15.28;100.00
26937;BME280;14495;48.116;11.676;2023-06-26T04:43:27;95633.34;;;15.37;100.00
26937;BME280;14495;48.116;11.676;2023-06-26T04:45:52;95628.28;;;15.57;100.00
26937;BME280;14495;48.116;11.676;2023-06-26T04:48:17;95626.28;;;15.70;100.00
26937;BME280;14495;48.116;11.676;2023-06-26T04:50:43;95625.03;;;15.85;100.00
26937;BME280;14495;48.116;11.676;2023-06-26T04:53:08;95626.41;;;16.01;100.00
26937;BME280;14495;48.116;11.676;2023-06-26T04:55:34;95628.97;;;16.12;100.00
26937;BME280;14495;48.116;11.676;2023-06-26T04:58:00;95623.22;;;16.28;100.00
26937;BME280;14495;48.116;11.676;2023-06-26T05:00:25;95623.72;;;16.43;100.00
26937;BME280;14495;48.116;11.676;2023-06-26T05:02:51;95625.31;;;16.55;100.00
26937;BME280;14495;48.116;11.676;2023-06-26T05:05:29;95625.34;;;16.65;100.00
26937;BME280;14495;48.116;11.676;2023-06-26T05:07:55;95624.03;;;16.80;100.00
26937;BME280;14495;48.116;11.676;2023-06-26T05:10:22;95626.28;;;16.95;100.00
26937;BME280;14495;48.116;11.676;2023-06-26T05:12:47;95626.59;;;17.02;100.00
26937;BME280;14495;48.116;11.676;2023-06-26T05:15:13;95621.34;;;17.21;100.00
26937;BME280;14495;48.116;11.676;2023-06-26T05:17:38;95625.41;;;17.35;100.00
26937;BME280;14495;48.116;11.676;2023-06-26T05:20:03;95622.38;;;17.49;100.00
26937;BME280;14495;48.116;11.676;2023-06-26T05:22:32;95625.28;;;17.56;100.00
26937;BME280;14495;48.116;11.676;2023-06-26T05:25:01;95628.34;;;17.71;100.00
26937;BME280;14495;48.116;11.676;2023-06-26T05:27:28;95629.88;;;17.83;100.00
26937;BME280;14495;48.116;11.676;2023-06-26T05:29:54;95632.41;;;17.94;100.00
26937;BME280;14495;48.116;11.676;2023-06-26T05:32:19;95636.13;;;18.11;100.00
26937;BME280;14495;48.116;11.676;2023-06-26T05:34:47;95622.19;;;18.29;100.00
26937;BME280;14495;48.116;11.676;2023-06-26T05:37:19;95631.38;;;18.34;100.00
26937;BME280;14495;48.116;11.676;2023-06-26T05:39:45;95628.78;;;18.52;100.00
26937;BME280;14495;48.116;11.676;2023-06-26T05:42:11;95622.78;;;18.60;100.00
26937;BME280;14495;48.116;11.676;2023-06-26T05:44:39;95619.66;;;18.74;100.00
26937;BME280;14495;48.116;11.676;2023-06-26T05:47:04;95618.38;;;18.88;100.00
26937;BME280;14495;48.116;11.676;2023-06-26T05:49:30;95619.78;;;19.10;100.00
26937;BME280;14495;48.116;11.676;2023-06-26T05:51:56;95624.53;;;19.35;100.00
26937;BME280;14495;48.116;11.676;2023-06-26T05:54:22;95622.41;;;19.56;100.00
26937;BME280;14495;48.116;11.676;2023-06-26T05:56:47;95623.84;;;19.68;100.00
26937;BME280;14495;48.116;11.676;2023-06-26T05:59:14;95622.34;;;20.02;100.00
26937;BME280;14495;48.116;11.676;2023-06-26T06:01:40;95625.13;;;20.71;99.84
26937;BME280;14495;48.116;11.676;2023-06-26T06:04:06;95620.50;;;23.04;88.62
26937;BME280;14495;48.116;11.676;2023-06-26T06:06:31;95615.38;;;25.60;75.28
26937;BME280;14495;48.116;11.676;2023-06-26T06:08:56;95613.75;;;27.22;64.42
26937;BME280;14495;48.116;11.676;2023-06-26T06:11:22;95625.22;;;28.86;60.04
26937;BME280;14495;48.116;11.676;2023-06-26T06:13:48;95616.28;;;29.57;54.81
26937;BME280;14495;48.116;11.676;2023-06-26T06:16:13;95618.00;;;30.72;52.55
26937;BME280;14495;48.116;11.676;2023-06-26T06:18:38;95616.72;;;31.55;48.74
26937;BME280;14495;48.116;11.676;2023-06-26T06:21:04;95614.53;;;31.46;46.89
26937;BME280;14495;48.116;11.676;2023-06-26T06:23:29;95612.72;;;31.88;46.79
26937;BME280;14495;48.116;11.676;2023-06-26T06:25:55;95612.31;;;33.28;45.26
26937;BME280;14495;48.116;11.676;2023-06-26T06:28:20;95625.00;;;32.45;44.50
26937;BME280;14495;48.116;11.676;2023-06-26T06:30:45;95616.59;;;33.64;42.58
26937;BME280;14495;48.116;11.676;2023-06-26T06:33:13;95611.50;;;33.68;42.12
26937;BME280;14495;48.116;11.676;2023-06-26T06:35:38;95615.09;;;32.39;42.58
26937;BME280;14495;48.116;11.676;2023-06-26T06:38:03;95617.41;;;33.01;40.70
26937;BME280;14495;48.116;11.676;2023-06-26T06:40:29;95619.03;;;34.23;39.81
26937;BME280;14495;48.116;11.676;2023-06-26T06:42:54;95614.22;;;33.16;40.46
26937;BME280;14495;48.116;11.676;2023-06-26T06:45:19;95623.13;;;33.80;38.94
26937;BME280;14495;48.116;11.676;2023-06-26T06:47:45;95627.19;;;34.91;37.31
26937;BME280;14495;48.116;11.676;2023-06-26T06:50:10;95621.44;;;34.54;37.19
26937;BME280;14495;48.116;11.676;2023-06-26T06:52:39;95620.13;;;35.51;36.52
26937;BME280;14495;48.116;11.676;2023-06-26T06:55:06;95629.38;;;35.50;35.27
26937;BME280;14495;48.116;11.676;2023-06-26T06:57:37;95627.94;;;34.36;37.35
26937;BME280;14495;48.116;11.676;2023-06-26T07:00:08;95626.53;;;34.33;37.14
26937;BME280;14495;48.116;11.676;2023-06-26T07:02:38;95628.03;;;34.58;37.02
26937;BME280;14495;48.116;11.676;2023-06-26T07:05:04;95616.66;;;36.05;35.68
26937;BME280;14495;48.116;11.676;2023-06-26T07:07:33;95617.88;;;35.21;35.88
26937;BME280;14495;48.116;11.676;2023-06-26T07:10:04;95625.38;;;35.36;34.97
26937;BME280;14495;48.116;11.676;2023-06-26T07:12:29;95616.69;;;35.78;34.04
26937;BME280;14495;48.116;11.676;2023-06-26T07:14:56;95615.41;;;35.02;36.35
26937;BME280;14495;48.116;11.676;2023-06-26T07:17:21;95619.38;;;36.05;34.06
26937;BME280;14495;48.116;11.676;2023-06-26T07:19:47;95610.38;;;36.27;33.39
26937;BME280;14495;48.116;11.676;2023-06-26T07:22:12;95616.88;;;35.98;33.40
26937;BME280;14495;48.116;11.676;2023-06-26T07:24:38;95616.38;;;35.74;33.32
26937;BME280;14495;48.116;11.676;2023-06-26T07:27:03;95612.13;;;35.39;35.15
26937;BME280;14495;48.116;11.676;2023-06-26T07:29:29;95610.78;;;35.64;35.84
26937;BME280;14495;48.116;11.676;2023-06-26T07:31:54;95606.56;;;36.60;32.93
26937;BME280;14495;48.116;11.676;2023-06-26T07:34:19;95612.75;;;36.50;33.20
26937;BME280;14495;48.116;11.676;2023-06-26T07:36:45;95612.53;;;37.37;31.50
26937;BME280;14495;48.116;11.676;2023-06-26T07:39:10;95610.81;;;36.78;32.47
26937;BME280;14495;48.116;11.676;2023-06-26T07:41:35;95614.72;;;37.45;30.96
26937;BME280;14495;48.116;11.676;2023-06-26T07:44:01;95616.66;;;37.55;31.74
26937;BME280;14495;48.116;11.676;2023-06-26T07:46:26;95615.66;;;36.11;32.15
26937;BME280;14495;48.116;11.676;2023-06-26T07:48:54;95614.53;;;35.36;34.69
26937;BME280;14495;48.116;11.676;2023-06-26T07:51:20;95604.97;;;35.77;33.51
26937;BME280;14495;48.116;11.676;2023-06-26T07:53:45;95615.22;;;36.52;33.79
26937;BME280;14495;48.116;11.676;2023-06-26T07:56:10;95603.34;;;36.31;35.39
26937;BME280;14495;48.116;11.676;2023-06-26T07:58:36;95603.50;;;36.51;34.18
26937;BME280;14495;48.116;11.676;2023-06-26T08:01:01;95612.06;;;37.56;32.79
26937;BME280;14495;48.116;11.676;2023-06-26T08:03:27;95603.50;;;37.26;32.00
26937;BME280;14495;48.116;11.676;2023-06-26T08:05:52;95612.16;;;36.43;34.49
26937;BME280;14495;48.116;11.676;2023-06-26T08:08:17;95602.22;;;35.72;35.05
26937;BME280;14495;48.116;11.676;2023-06-26T08:10:43;95612.13;;;34.66;34.77
26937;BME280;14495;48.116;11.676;2023-06-26T08:13:08;95604.44;;;33.96;37.05
26937;BME280;14495;48.116;11.676;2023-06-26T08:15:34;95599.03;;;33.03;36.80
26937;BME280;14495;48.116;11.676;2023-06-26T08:17:59;95592.88;;;32.36;40.78
26937;BME280;14495;48.116;11.676;2023-06-26T08:20:24;95602.72;;;31.77;39.01
26937;BME280;14495;48.116;11.676;2023-06-26T08:22:50;95594.28;;;31.85;43.86
26937;BME280;14495;48.116;11.676;2023-06-26T08:25:17;95595.16;;;30.75;40.60
26937;BME280;14495;48.116;11.676;2023-06-26T08:27:43;95598.34;;;30.47;41.54
26937;BME280;14495;48.116;11.676;2023-06-26T08:30:08;95604.94;;;29.94;45.56
26937;BME280;14495;48.116;11.676;2023-06-26T08:32:34;95603.59;;;30.10;43.25
26937;BME280;14495;48.116;11.676;2023-06-26T08:34:59;95597.97;;;30.43;44.66
26937;BME280;14495;48.116;11.676;2023-06-26T08:37:25;95592.81;;;30.35;44.67
26937;BME280;14495;48.116;11.676;2023-06-26T08:39:50;95596.22;;;30.23;44.35
26937;BME280;14495;48.116;11.676;2023-06-26T08:42:16;95600.72;;;30.04;44.36
26937;BME280;14495;48.116;11.676;2023-06-26T08:44:41;95604.25;;;29.98;42.27
26937;BME280;14495;48.116;11.676;2023-06-26T08:47:07;95596.53;;;30.09;43.89
26937;BME280;14495;48.116;11.676;2023-06-26T08:52:23;95592.88;;;29.96;41.81
26937;BME280;14495;48.116;11.676;2023-06-26T08:54:55;95591.75;;;29.79;43.44
26937;BME280;14495;48.116;11.676;2023-06-26T08:57:22;95594.13;;;30.00;42.00
26937;BME280;14495;48.116;11.676;2023-06-26T08:59:48;95587.72;;;29.95;45.25
26937;BME280;14495;48.116;11.676;2023-06-26T09:02:14;95582.81;;;29.85;42.15
26937;BME280;14495;48.116;11.676;2023-06-26T09:04:40;95577.31;;;30.30;45.28
26937;BME280;14495;48.116;11.676;2023-06-26T09:07:05;95584.25;;;30.13;43.08
26937;BME280;14495;48.116;11.676;2023-06-26T09:09:31;95584.16;;;30.26;41.76
26937;BME280;14495;48.116;11.676;2023-06-26T09:11:57;95579.22;;;30.23;42.70
26937;BME280;14495;48.116;11.676;2023-06-26T09:14:24;95580.78;;;30.05;43.80
26937;BME280;14495;48.116;11.676;2023-06-26T09:16:50;95572.47;;;30.14;43.62
26937;BME280;14495;48.116;11.676;2023-06-26T09:19:15;95574.66;;;30.23;41.90
26937;BME280;14495;48.116;11.676;2023-06-26T09:21:42;95567.53;;;30.36;43.93
26937;BME280;14495;48.116;11.676;2023-06-26T09:24:09;95572.47;;;30.14;44.50
26937;BME280;14495;48.116;11.676;2023-06-26T09:26:38;95563.56;;;29.81;39.90
26937;BME280;14495;48.116;11.676;2023-06-26T09:29:08;95566.84;;;29.83;41.59
26937;BME280;14495;48.116;11.676;2023-06-26T09:31:37;95560.78;;;30.20;40.52
26937;BME280;14495;48.116;11.676;2023-06-26T09:34:03;95559.25;;;30.31;42.33
26937;BME280;14495;48.116;11.676;2023-06-26T09:36:30;95561.94;;;30.37;43.36
26937;BME280;14495;48.116;11.676;2023-06-26T09:39:08;95565.09;;;30.53;42.43
26937;BME280;14495;48.116;11.676;2023-06-26T09:41:37;95572.03;;;29.85;42.76
26937;BME280;14495;48.116;11.676;2023-06-26T09:44:05;95563.59;;;30.06;42.29
26937;BME280;14495;48.116;11.676;2023-06-26T09:46:31;95557.94;;;30.15;40.78
26937;BME280;14495;48.116;11.676;2023-06-26T09:49:05;95553.22;;;30.35;42.09
26937;BME280;14495;48.116;11.676;2023-06-26T09:51:34;95552.63;;;29.69;41.75
26937;BME280;14495;48.116;11.676;2023-06-26T09:54:01;95556.22;;;29.18;42.09
26937;BME280;14495;48.116;11.676;2023-06-26T09:56:27;95552.97;;;29.48;43.09
26937;BME280;14495;48.116;11.676;2023-06-26T09:58:58;95546.41;;;29.37;44.02
26937;BME280;14495;48.116;11.676;2023-06-26T10:01:24;95548.09;;;29.32;41.94
26937;BME280;14495;48.116;11.676;2023-06-26T10:03:50;95550.31;;;29.80;42.03
26937;BME280;14495;48.116;11.676;2023-06-26T10:06:19;95536.66;;;29.43;40.57
26937;BME280;14495;48.116;11.676;2023-06-26T10:08:45;95534.19;;;29.41;40.54
26937;BME280;14495;48.116;11.676;2023-06-26T10:11:14;95532.53;;;28.88;41.24
26937;BME280;14495;48.116;11.676;2023-06-26T10:13:43;95538.81;;;29.59;41.05
26937;BME280;14495;48.116;11.676;2023-06-26T10:16:11;95545.81;;;29.74;41.86
26937;BME280;14495;48.116;11.676;2023-06-26T10:18:40;95537.31;;;29.32;41.13
26937;BME280;14495;48.116;11.676;2023-06-26T10:21:08;95539.88;;;29.13;41.55
26937;BME280;14495;48.116;11.676;2023-06-26T10:23:36;95531.06;;;30.08;41.34
26937;BME280;14495;48.116;11.676;2023-06-26T10:26:07;95532.91;;;30.58;39.65
26937;BME280;14495;48.116;11.676;2023-06-26T10:28:35;95536.69;;;30.50;40.24
26937;BME280;14495;48.116;11.676;2023-06-26T10:31:05;95531.94;;;30.89;38.89
26937;BME280;14495;48.116;11.676;2023-06-26T10:33:33;95524.53;;;31.03;37.90
26937;BME280;14495;48.116;11.676;2023-06-26T10:36:13;95523.72;;;31.33;38.81
26937;BME280;14495;48.116;11.676;2023-06-26T10:38:52;95522.81;;;30.28;40.93
26937;BME280;14495;48.116;11.676;2023-06-26T10:41:20;95529.69;;;29.67;38.73
26937;BME280;14495;48.116;11.676;2023-06-26T10:43:49;95534.69;;;29.95;40.28
26937;BME280;14495;48.116;11.676;2023-06-26T10:46:18;95518.91;;;30.68;37.91
26937;BME280;14495;48.116;11.676;2023-06-26T10:48:59;95524.34;;;31.16;37.57
26937;BME280;14495;48.116;11.676;2023-06-26T10:51:26;95524.78;;;31.32;36.25
26937;BME280;14495;48.116;11.676;2023-06-26T10:53:55;95516.25;;;30.79;37.80
26937;BME280;14495;48.116;11.676;2023-06-26T10:56:21;95515.00;;;30.63;37.41
26937;BME280;14495;48.116;11.676;2023-06-26T11:01:41;95512.47;;;31.36;37.60
26937;BME280;14495;48.116;11.676;2023-06-26T11:04:08;95507.38;;;31.88;36.70
26937;BME280;14495;48.116;11.676;2023-06-26T11:06:36;95510.50;;;32.15;35.79
26937;BME280;14495;48.116;11.676;2023-06-26T11:14:17;95508.66;;;30.07;38.34
26937;BME280;14495;48.116;11.676;2023-06-26T11:16:43;95516.56;;;29.71;40.86
26937;BME280;14495;48.116;11.676;2023-06-26T11:19:09;95514.47;;;30.30;37.58
26937;BME280;14495;48.116;11.676;2023-06-26T11:21:37;95504.31;;;30.94;38.53
26937;BME280;14495;48.116;11.676;2023-06-26T11:24:04;95503.66;;;30.36;37.63
26937;BME280;14495;48.116;11.676;2023-06-26T11:26:31;95506.56;;;30.35;38.07
26937;BME280;14495;48.116;11.676;2023-06-26T11:29:02;95502.28;;;30.52;37.71
26937;BME280;14495;48.116;11.676;2023-06-26T11:31:29;95505.63;;;30.48;37.62
26937;BME280;14495;48.116;11.676;2023-06-26T11:33:56;95496.88;;;30.27;38.45
26937;BME280;14495;48.116;11.676;2023-06-26T11:36:28;95502.50;;;30.88;38.10
26937;BME280;14495;48.116;11.676;2023-06-26T11:39:01;95502.03;;;30.91;39.52
26937;BME280;14495;48.116;11.676;2023-06-26T11:41:37;95500.69;;;30.63;38.65
26937;BME280;14495;48.116;11.676;2023-06-26T11:44:10;95498.13;;;30.68;38.19
26937;BME280;14495;48.116;11.676;2023-06-26T11:46:35;95503.34;;;30.44;38.46
26937;BME280;14495;48.116;11.676;2023-06-26T11:49:07;95502.31;;;30.45;39.38
26937;BME280;14495;48.116;11.676;2023-06-26T11:51:33;95499.03;;;30.43;38.65
26937;BME280;14495;48.116;11.676;2023-06-26T11:54:01;95501.16;;;31.27;38.54
26937;BME280;14495;48.116;11.676;2023-06-26T11:56:28;95492.22;;;31.45;38.05
26937;BME280;14495;48.116;11.676;2023-06-26T12:01:37;95497.09;;;32.32;36.36
26937;BME280;14495;48.116;11.676;2023-06-26T12:04:05;95496.84;;;32.22;37.20
26937;BME280;14495;48.116;11.676;2023-06-26T12:06:33;95496.13;;;31.00;38.48
26937;BME280;14495;48.116;11.676;2023-06-26T12:09:01;95502.38;;;31.62;38.37
26937;BME280;14495;48.116;11.676;2023-06-26T12:11:29;95491.47;;;31.08;39.27
26937;BME280;14495;48.116;11.676;2023-06-26T12:13:55;95495.22;;;30.26;40.34
26937;BME280;14495;48.116;11.676;2023-06-26T12:16:21;95489.00;;;31.06;41.73
26937;BME280;14495;48.116;11.676;2023-06-26T12:18:47;95495.00;;;31.69;38.57
26937;BME280;14495;48.116;11.676;2023-06-26T12:24:03;95482.16;;;32.30;36.30
26937;BME280;14495;48.116;11.676;2023-06-26T12:26:29;95489.31;;;32.71;37.88
26937;BME280;14495;48.116;11.676;2023-06-26T12:29:28;95493.13;;;32.99;37.61
26937;BME280;14495;48.116;11.676;2023-06-26T12:31:52;95493.78;;;32.66;36.23
26937;BME280;14495;48.116;11.676;2023-06-26T12:34:27;95485.09;;;32.05;35.89
26937;BME280;14495;48.116;11.676;2023-06-26T12:36:53;95491.81;;;31.11;36.76
26937;BME280;14495;48.116;11.676;2023-06-26T12:39:21;95485.16;;;31.86;36.10
26937;BME280;14495;48.116;11.676;2023-06-26T12:41:54;95481.91;;;32.43;36.86
26937;BME280;14495;48.116;11.676;2023-06-26T12:44:20;95480.72;;;32.51;36.59
26937;BME280;14495;48.116;11.676;2023-06-26T12:46:49;95479.06;;;32.50;35.68
26937;BME280;14495;48.116;11.676;2023-06-26T12:49:16;95484.88;;;31.64;36.93
26937;BME280;14495;48.116;11.676;2023-06-26T12:51:41;95480.63;;;30.96;38.40
26937;BME280;14495;48.116;11.676;2023-06-26T12:54:07;95478.72;;;31.45;37.65
26937;BME280;14495;48.116;11.676;2023-06-26T12:56:33;95464.03;;;32.54;38.78
26937;BME280;14495;48.116;11.676;2023-06-26T12:58:58;95463.56;;;33.09;35.81
26937;BME280;14495;48.116;11.676;2023-06-26T13:01:23;95472.91;;;32.90;35.37
26937;BME280;14495;48.116;11.676;2023-06-26T13:03:49;95471.94;;;32.96;36.60
26937;BME280;14495;48.116;11.676;2023-06-26T13:06:16;95464.81;;;33.47;35.02